Time,TemperatureF,DewpointF,PressureIn,WindDirection,WindDirectionDegrees,WindSpeedMPH,WindSpeedGustMPH,Humidity,HourlyPrecipIn,Conditions,Clouds,dailyrainin,SoftwareType,DateUTC
2013-05-06 00:00:00,62.4,44.1,29.98,NNE,33,5.0,11.0,51,0.00,,,0.00,WUHU216DAVISVP2,2013-05-06 04:00:00,
2013-05-06 00:01:00,62.4,44.1,29.98,North,359,8.0,11.0,51,0.00,,,0.00,WUHU216DAVISVP2,2013-05-06 04:01:00,
2013-05-06 00:06:00,62.4,43.5,29.98,NNE,27,7.0,13.0,50,0.00,,,0.00,WUHU216DAVISVP2,2013-05-06 04:06:00,
2013-05-06 00:21:00,62.2,43.3,29.97,NNE,27,9.0,12.0,50,0.00,,,0.00,WUHU216DAVISVP2,2013-05-06 04:21:00,
2013-05-06 00:26:00,62.2,42.8,29.97,NNE,30,7.0,16.0,49,0.00,,,0.00,WUHU216DAVISVP2,2013-05-06 04:26:00,
2013-05-06 00:31:00,62.2,43.3,29.98,NE,43,8.0,16.0,50,0.00,,,0.00,WUHU216DAVISVP2,2013-05-06 04:31:00,
2013-05-06 00:43:00,61.7,42.9,29.98,ENE,57,6.0,12.0,50,0.00,,,0.00,WUHU216DAVISVP2,2013-05-06 04:43:00,
2013-05-06 00:48:00,61.5,43.2,29.98,NNE,23,6.0,12.0,51,0.00,,,0.00,WUHU216DAVISVP2,2013-05-06 04:48:00,
2013-05-06 00:53:00,61.4,43.1,29.98,NE,51,8.0,11.0,51,0.00,,,0.00,WUHU216DAVISVP2,2013-05-06 04:53:00,
2013-05-06 01:05:00,61.2,43.0,29.98,NE,47,7.0,12.0,51,0.00,,,0.00,WUHU216DAVISVP2,2013-05-06 05:05:00,
2013-05-06 01:10:00,61.2,42.4,29.98,NE,43,6.0,12.0,50,0.00,,,0.00,WUHU216DAVISVP2,2013-05-06 05:10:00,
2013-05-06 01:15:00,61.3,42.5,29.98,NE,47,6.0,11.0,50,0.00,,,0.00,WUHU216DAVISVP2,2013-05-06 05:15:00,
2013-05-06 01:27:00,61.3,42.5,29.98,NE,44,5.0,11.0,50,0.00,,,0.00,WUHU216DAVISVP2,2013-05-06 05:27:00,
2013-05-06 01:32:00,61.0,42.2,29.98,NNE,23,6.0,11.0,50,0.00,,,0.00,WUHU216DAVISVP2,2013-05-06 05:32:00,
2013-05-06 01:37:00,61.0,43.3,29.98,NE,49,6.0,11.0,52,0.00,,,0.00,WUHU216DAVISVP2,2013-05-06 05:37:00,
2013-05-06 01:49:00,60.4,42.7,29.98,NE,44,4.0,10.0,52,0.00,,,0.00,WUHU216DAVISVP2,2013-05-06 05:49:00,
2013-05-06 01:54:00,60.5,43.3,29.97,NE,50,5.0,11.0,53,0.00,,,0.00,WUHU216DAVISVP2,2013-05-06 05:54:00,
2013-05-06 01:59:00,60.5,42.8,29.97,NE,36,4.0,11.0,52,0.00,,,0.00,WUHU216DAVISVP2,2013-05-06 05:59:00,
2013-05-06 02:11:00,60.3,43.7,29.97,NE,44,3.0,7.0,54,0.00,,,0.00,WUHU216DAVISVP2,2013-05-06 06:11:00,
2013-05-06 02:16:00,60.3,43.7,29.97,NE,44,3.0,8.0,54,0.00,,,0.00,WUHU216DAVISVP2,2013-05-06 06:16:00,
2013-05-06 02:21:00,60.1,43.5,29.97,NE,49,5.0,8.0,54,0.00,,,0.00,WUHU216DAVISVP2,2013-05-06 06:21:00,
2013-05-06 02:33:00,59.7,43.6,29.97,NE,41,3.0,6.0,55,0.00,,,0.00,WUHU216DAVISVP2,2013-05-06 06:33:00,
2013-05-06 02:38:00,59.9,43.3,29.97,NE,49,3.0,7.0,54,0.00,,,0.00,WUHU216DAVISVP2,2013-05-06 06:38:00,
2013-05-06 02:43:00,59.7,43.6,29.97,NE,56,5.0,7.0,55,0.00,,,0.00,WUHU216DAVISVP2,2013-05-06 06:43:00,
2013-05-06 02:55:00,60.0,43.4,29.96,NE,44,7.0,10.0,54,0.00,,,0.00,WUHU216DAVISVP2,2013-05-06 06:55:00,
2013-05-06 03:00:00,60.0,43.4,29.96,NE,41,4.0,10.0,54,0.00,,,0.00,WUHU216DAVISVP2,2013-05-06 07:00:00,
2013-05-06 03:05:00,59.7,43.6,29.96,NE,40,3.0,9.0,55,0.00,,,0.00,WUHU216DAVISVP2,2013-05-06 07:05:00,
2013-05-06 03:17:00,59.5,43.9,29.96,NNE,33,3.0,8.0,56,0.00,,,0.00,WUHU216DAVISVP2,2013-05-06 07:17:00,
2013-05-06 03:22:00,59.2,44.1,29.95,NE,56,6.0,8.0,57,0.00,,,0.00,WUHU216DAVISVP2,2013-05-06 07:22:00,
2013-05-06 03:39:00,58.3,43.7,29.95,NE,53,7.0,9.0,58,0.00,,,0.00,WUHU216DAVISVP2,2013-05-06 07:39:00,
2013-05-06 03:44:00,58.1,44.0,29.95,NE,49,5.0,9.0,59,0.00,,,0.00,WUHU216DAVISVP2,2013-05-06 07:44:00,
2013-05-06 03:49:00,57.7,44.0,29.95,NE,56,4.0,8.0,60,0.00,,,0.00,WUHU216DAVISVP2,2013-05-06 07:49:00,
2013-05-06 04:01:00,57.2,44.4,29.95,NE,47,4.0,6.0,62,0.00,,,0.00,WUHU216DAVISVP2,2013-05-06 08:01:00,
2013-05-06 04:06:00,57.1,44.2,29.95,NE,50,5.0,6.0,62,0.00,,,0.00,WUHU216DAVISVP2,2013-05-06 08:06:00,
2013-05-06 04:10:00,57.0,44.7,29.95,NE,50,5.0,6.0,63,0.00,,,0.00,WUHU216DAVISVP2,2013-05-06 08:10:00,
2013-05-06 04:22:00,56.5,44.0,29.95,NE,49,4.0,6.0,63,0.00,,,0.00,WUHU216DAVISVP2,2013-05-06 08:22:00,
2013-05-06 04:27:00,56.2,44.3,29.95,NE,44,3.0,6.0,64,0.00,,,0.00,WUHU216DAVISVP2,2013-05-06 08:27:00,
2013-05-06 04:44:00,56.0,44.1,29.95,NE,50,4.0,6.0,64,0.00,,,0.00,WUHU216DAVISVP2,2013-05-06 08:44:00,
2013-05-06 04:49:00,55.7,44.2,29.95,NE,56,4.0,5.0,65,0.00,,,0.00,WUHU216DAVISVP2,2013-05-06 08:49:00,
2013-05-06 04:54:00,55.6,44.1,29.95,NE,50,4.0,5.0,65,0.00,,,0.00,WUHU216DAVISVP2,2013-05-06 08:54:00,
2013-05-06 05:06:00,55.1,44.5,29.95,NE,51,3.0,6.0,67,0.00,,,0.00,WUHU216DAVISVP2,2013-05-06 09:06:00,
2013-05-06 05:11:00,54.8,44.0,29.96,NE,51,4.0,5.0,67,0.00,,,0.00,WUHU216DAVISVP2,2013-05-06 09:11:00,
2013-05-06 05:16:00,54.9,43.7,29.96,NE,44,4.0,6.0,66,0.00,,,0.00,WUHU216DAVISVP2,2013-05-06 09:16:00,
2013-05-06 05:28:00,55.4,43.8,29.96,ENE,60,3.0,6.0,65,0.00,,,0.00,WUHU216DAVISVP2,2013-05-06 09:28:00,
2013-05-06 05:33:00,55.6,44.0,29.96,NE,50,3.0,6.0,65,0.00,,,0.00,WUHU216DAVISVP2,2013-05-06 09:33:00,
2013-05-06 05:38:00,55.4,43.8,29.96,NE,56,2.0,6.0,65,0.00,,,0.00,WUHU216DAVISVP2,2013-05-06 09:38:00,
2013-05-06 05:50:00,53.7,43.8,29.97,ENE,65,2.0,4.0,69,0.00,,,0.00,WUHU216DAVISVP2,2013-05-06 09:50:00,
2013-05-06 05:55:00,53.0,43.5,29.97,ENE,78,1.0,3.0,70,0.00,,,0.00,WUHU216DAVISVP2,2013-05-06 09:55:00,
2013-05-06 06:00:00,52.6,43.5,29.97,ENE,78,2.0,2.0,71,0.00,,,0.00,WUHU216DAVISVP2,2013-05-06 10:00:00,
2013-05-06 06:12:00,52.8,43.7,29.97,ENE,65,1.0,2.0,71,0.00,,,0.00,WUHU216DAVISVP2,2013-05-06 10:12:00,
2013-05-06 06:17:00,53.1,43.6,29.97,NE,44,3.0,3.0,70,0.00,,,0.00,WUHU216DAVISVP2,2013-05-06 10:17:00,
2013-05-06 06:22:00,53.4,43.5,29.97,NE,44,3.0,4.0,69,0.00,,,0.00,WUHU216DAVISVP2,2013-05-06 10:22:00,
2013-05-06 06:34:00,53.1,43.6,29.97,NE,44,3.0,4.0,70,0.00,,,0.00,WUHU216DAVISVP2,2013-05-06 10:34:00,
2013-05-06 06:39:00,52.8,43.7,29.97,NE,49,2.0,4.0,71,0.00,,,0.00,WUHU216DAVISVP2,2013-05-06 10:39:00,
2013-05-06 06:56:00,52.9,43.5,29.98,NE,44,2.0,4.0,70,0.00,,,0.00,WUHU216DAVISVP2,2013-05-06 10:56:00,
2013-05-06 07:01:00,53.0,43.6,29.98,NE,43,3.0,4.0,70,0.00,,,0.00,WUHU216DAVISVP2,2013-05-06 11:01:00,
2013-05-06 07:06:00,53.0,43.5,29.98,NE,37,3.0,4.0,70,0.00,,,0.00,WUHU216DAVISVP2,2013-05-06 11:06:00,
2013-05-06 07:18:00,53.0,44.0,29.99,NE,43,3.0,4.0,71,0.00,,,0.00,WUHU216DAVISVP2,2013-05-06 11:18:00,
2013-05-06 07:23:00,53.1,44.1,29.99,NE,41,2.0,3.0,71,0.00,,,0.00,WUHU216DAVISVP2,2013-05-06 11:23:00,
2013-05-06 07:28:00,53.2,44.5,29.99,NNE,33,2.0,3.0,72,0.00,,,0.00,WUHU216DAVISVP2,2013-05-06 11:28:00,
2013-05-06 07:40:00,53.9,45.2,29.99,NE,44,1.0,4.0,72,0.00,,,0.00,WUHU216DAVISVP2,2013-05-06 11:40:00,
2013-05-06 07:45:00,54.2,44.7,29.99,NNE,33,4.0,4.0,70,0.00,,,0.00,WUHU216DAVISVP2,2013-05-06 11:45:00,
2013-05-06 07:50:00,54.9,44.7,29.99,NE,37,4.0,7.0,68,0.00,,,0.00,WUHU216DAVISVP2,2013-05-06 11:50:00,
2013-05-06 08:02:00,55.7,45.4,30.00,NE,41,4.0,6.0,68,0.00,,,0.00,WUHU216DAVISVP2,2013-05-06 12:02:00,
2013-05-06 08:07:00,55.8,45.5,30.00,NE,53,6.0,7.0,68,0.00,,,0.00,WUHU216DAVISVP2,2013-05-06 12:07:00,
2013-05-06 08:23:00,56.5,46.2,30.00,NE,49,7.0,8.0,68,0.00,,,0.00,WUHU216DAVISVP2,2013-05-06 12:23:00,
2013-05-06 08:28:00,56.4,45.6,30.00,NE,54,7.0,9.0,67,0.00,,,0.00,WUHU216DAVISVP2,2013-05-06 12:28:00,
2013-05-06 08:33:00,56.5,45.8,30.00,NE,51,6.0,9.0,67,0.00,,,0.00,WUHU216DAVISVP2,2013-05-06 12:33:00,
2013-05-06 08:45:00,57.0,45.5,30.01,NNE,33,6.0,10.0,65,0.00,,,0.00,WUHU216DAVISVP2,2013-05-06 12:45:00,
2013-05-06 08:50:00,57.3,46.2,30.01,NE,37,8.0,10.0,66,0.00,,,0.00,WUHU216DAVISVP2,2013-05-06 12:50:00,
2013-05-06 08:55:00,57.3,45.8,30.01,ENE,58,8.0,10.0,65,0.00,,,0.00,WUHU216DAVISVP2,2013-05-06 12:55:00,
2013-05-06 09:07:00,57.7,45.7,30.01,ENE,66,7.0,10.0,64,0.00,,,0.00,WUHU216DAVISVP2,2013-05-06 13:07:00,
2013-05-06 09:12:00,58.0,46.0,30.01,ENE,63,7.0,9.0,64,0.00,,,0.00,WUHU216DAVISVP2,2013-05-06 13:12:00,
2013-05-06 09:17:00,58.1,46.1,30.01,NE,49,7.0,8.0,64,0.00,,,0.00,WUHU216DAVISVP2,2013-05-06 13:17:00,
2013-05-06 09:29:00,58.6,46.6,30.01,ENE,63,3.0,9.0,64,0.00,,,0.00,WUHU216DAVISVP2,2013-05-06 13:29:00,
2013-05-06 09:34:00,59.0,47.0,30.02,ENE,78,5.0,9.0,64,0.00,,,0.00,WUHU216DAVISVP2,2013-05-06 13:34:00,
2013-05-06 09:51:00,60.2,47.3,30.02,East,81,6.0,9.0,62,0.00,,,0.00,WUHU216DAVISVP2,2013-05-06 13:51:00,
2013-05-06 09:56:00,60.3,47.4,30.02,NE,56,4.0,9.0,62,0.00,,,0.00,WUHU216DAVISVP2,2013-05-06 13:56:00,
2013-05-06 10:01:00,60.5,47.6,30.02,ENE,74,4.0,11.0,62,0.00,,,0.00,WUHU216DAVISVP2,2013-05-06 14:01:00,
2013-05-06 10:13:00,60.5,48.0,30.02,ENE,64,4.0,10.0,63,0.00,,,0.00,WUHU216DAVISVP2,2013-05-06 14:13:00,
2013-05-06 10:18:00,60.7,48.2,30.02,NE,56,5.0,9.0,63,0.00,,,0.00,WUHU216DAVISVP2,2013-05-06 14:18:00,
2013-05-06 10:23:00,61.0,48.0,30.02,ENE,75,7.0,8.0,62,0.00,,,0.00,WUHU216DAVISVP2,2013-05-06 14:23:00,
2013-05-06 10:35:00,62.0,48.1,30.02,ENE,58,5.0,9.0,60,0.00,,,0.00,WUHU216DAVISVP2,2013-05-06 14:35:00,
2013-05-06 10:40:00,62.2,48.3,30.02,NE,49,6.0,9.0,60,0.00,,,0.00,WUHU216DAVISVP2,2013-05-06 14:40:00,
2013-05-06 10:57:00,62.9,48.0,30.02,ENE,71,8.0,10.0,58,0.00,,,0.00,WUHU216DAVISVP2,2013-05-06 14:57:00,
2013-05-06 11:02:00,63.1,49.1,30.02,NE,54,9.0,11.0,60,0.00,,,0.00,WUHU216DAVISVP2,2013-05-06 15:02:00,
2013-05-06 11:07:00,63.4,48.5,30.02,ENE,58,9.0,11.0,58,0.00,,,0.00,WUHU216DAVISVP2,2013-05-06 15:07:00,
2013-05-06 11:19:00,64.8,49.8,30.02,NE,54,8.0,12.0,58,0.00,,,0.00,WUHU216DAVISVP2,2013-05-06 15:19:00,
2013-05-06 11:24:00,65.4,48.9,30.01,ENE,75,8.0,15.0,55,0.00,,,0.00,WUHU216DAVISVP2,2013-05-06 15:24:00,
2013-05-06 11:29:00,66.1,50.6,30.01,NE,53,8.0,15.0,57,0.00,,,0.00,WUHU216DAVISVP2,2013-05-06 15:29:00,
2013-05-06 11:41:00,66.5,50.4,30.01,NE,53,10.0,15.0,56,0.00,,,0.00,WUHU216DAVISVP2,2013-05-06 15:41:00,
2013-05-06 11:46:00,66.8,50.2,30.01,East,82,12.0,15.0,55,0.00,,,0.00,WUHU216DAVISVP2,2013-05-06 15:46:00,
2013-05-06 11:51:00,67.4,51.3,30.01,NE,43,15.0,16.0,56,0.00,,,0.00,WUHU216DAVISVP2,2013-05-06 15:51:00,
2013-05-06 12:03:00,67.5,49.9,30.00,NE,37,7.0,16.0,53,0.00,,,0.00,WUHU216DAVISVP2,2013-05-06 16:03:00,
2013-05-06 12:08:00,67.6,51.0,30.00,NE,41,9.0,16.0,55,0.00,,,0.00,WUHU216DAVISVP2,2013-05-06 16:08:00,
2013-05-06 12:13:00,68.2,50.5,30.00,ENE,61,8.0,15.0,53,0.00,,,0.00,WUHU216DAVISVP2,2013-05-06 16:13:00,
2013-05-06 12:24:00,68.9,50.6,30.00,ENE,60,4.0,14.0,52,0.00,,,0.00,WUHU216DAVISVP2,2013-05-06 16:24:00,
2013-05-06 12:29:00,69.8,52.5,30.00,NE,43,10.0,14.0,54,0.00,,,0.00,WUHU216DAVISVP2,2013-05-06 16:29:00,
2013-05-06 12:46:00,69.2,50.9,29.99,NE,49,6.0,12.0,52,0.00,,,0.00,WUHU216DAVISVP2,2013-05-06 16:46:00,
2013-05-06 12:51:00,69.2,52.0,29.99,ENE,68,7.0,12.0,54,0.00,,,0.00,WUHU216DAVISVP2,2013-05-06 16:51:00,
2013-05-06 13:08:00,69.1,50.8,29.99,ENE,61,8.0,13.0,52,0.00,,,0.00,WUHU216DAVISVP2,2013-05-06 17:08:00,
2013-05-06 13:13:00,69.0,51.8,29.99,ENE,78,9.0,12.0,54,0.00,,,0.00,WUHU216DAVISVP2,2013-05-06 17:13:00,
2013-05-06 13:30:00,70.8,51.3,29.99,East,85,6.0,13.0,50,0.00,,,0.00,WUHU216DAVISVP2,2013-05-06 17:30:00,
2013-05-06 13:35:00,71.1,51.6,29.98,East,84,10.0,13.0,50,0.00,,,0.00,WUHU216DAVISVP2,2013-05-06 17:35:00,
2013-05-06 13:40:00,70.7,51.8,29.99,ESE,102,12.0,16.0,51,0.00,,,0.00,WUHU216DAVISVP2,2013-05-06 17:40:00,
2013-05-06 13:52:00,70.1,52.8,29.99,ESE,108,9.0,18.0,54,0.00,,,0.00,WUHU216DAVISVP2,2013-05-06 17:52:00,
2013-05-06 13:57:00,70.2,51.8,29.99,ESE,123,9.0,16.0,52,0.00,,,0.00,WUHU216DAVISVP2,2013-05-06 17:57:00,
2013-05-06 14:02:00,70.3,52.5,29.98,East,91,7.0,16.0,53,0.00,,,0.00,WUHU216DAVISVP2,2013-05-06 18:02:00,
2013-05-06 14:14:00,71.4,52.4,29.98,ESE,102,6.0,17.0,51,0.00,,,0.00,WUHU216DAVISVP2,2013-05-06 18:14:00,
2013-05-06 14:19:00,71.8,53.3,29.98,ENE,78,9.0,17.0,52,0.00,,,0.00,WUHU216DAVISVP2,2013-05-06 18:19:00,
2013-05-06 14:24:00,71.9,52.9,29.98,East,79,8.0,20.0,51,0.00,,,0.00,WUHU216DAVISVP2,2013-05-06 18:24:00,
2013-05-06 14:36:00,72.4,53.2,29.98,ENE,74,9.0,18.0,51,0.00,,,0.00,WUHU216DAVISVP2,2013-05-06 18:36:00,
2013-05-06 14:41:00,71.6,53.0,29.98,ESE,108,10.0,18.0,52,0.00,,,0.00,WUHU216DAVISVP2,2013-05-06 18:41:00,
2013-05-06 14:46:00,70.9,53.4,29.98,East,99,14.0,18.0,54,0.00,,,0.00,WUHU216DAVISVP2,2013-05-06 18:46:00,
2013-05-06 14:58:00,70.5,54.0,29.98,East,85,12.0,17.0,56,0.00,,,0.00,WUHU216DAVISVP2,2013-05-06 18:58:00,
2013-05-06 15:03:00,70.4,53.5,29.98,ESE,104,10.0,17.0,55,0.00,,,0.00,WUHU216DAVISVP2,2013-05-06 19:03:00,
2013-05-06 15:08:00,70.5,53.6,29.98,SE,139,8.0,16.0,55,0.00,,,0.00,WUHU216DAVISVP2,2013-05-06 19:08:00,
2013-05-06 15:20:00,71.4,54.0,29.98,East,94,9.0,15.0,54,0.00,,,0.00,WUHU216DAVISVP2,2013-05-06 19:20:00,
2013-05-06 15:25:00,71.8,53.3,29.98,ESE,109,9.0,15.0,52,0.00,,,0.00,WUHU216DAVISVP2,2013-05-06 19:25:00,
2013-05-06 15:30:00,71.6,52.6,29.98,ESE,117,8.0,19.0,51,0.00,,,0.00,WUHU216DAVISVP2,2013-05-06 19:30:00,
2013-05-06 15:42:00,71.7,53.2,29.97,East,99,9.0,18.0,52,0.00,,,0.00,WUHU216DAVISVP2,2013-05-06 19:42:00,
2013-05-06 15:47:00,71.7,53.2,29.97,ESE,105,11.0,16.0,52,0.00,,,0.00,WUHU216DAVISVP2,2013-05-06 19:47:00,
2013-05-06 15:52:00,72.0,54.0,29.97,ESE,109,15.0,16.0,53,0.00,,,0.00,WUHU216DAVISVP2,2013-05-06 19:52:00,
2013-05-06 16:04:00,71.0,53.6,29.97,ENE,74,10.0,17.0,54,0.00,,,0.00,WUHU216DAVISVP2,2013-05-06 20:04:00,
2013-05-06 16:09:00,70.4,53.6,29.97,ENE,58,9.0,17.0,55,0.00,,,0.00,WUHU216DAVISVP2,2013-05-06 20:09:00,
2013-05-06 16:25:00,69.2,54.0,29.97,ESE,108,10.0,15.0,58,0.00,,,0.00,WUHU216DAVISVP2,2013-05-06 20:25:00,
2013-05-06 16:30:00,69.0,53.8,29.97,ESE,106,9.0,15.0,58,0.00,,,0.00,WUHU216DAVISVP2,2013-05-06 20:30:00,
2013-05-06 16:35:00,68.9,54.1,29.96,East,90,9.0,14.0,59,0.00,,,0.00,WUHU216DAVISVP2,2013-05-06 20:35:00,
2013-05-06 16:47:00,68.9,53.7,29.96,ESE,117,5.0,12.0,58,0.00,,,0.00,WUHU216DAVISVP2,2013-05-06 20:47:00,
2013-05-06 16:52:00,68.9,53.7,29.96,East,91,6.0,12.0,58,0.00,,,0.00,WUHU216DAVISVP2,2013-05-06 20:52:00,
2013-05-06 17:09:00,69.2,53.5,29.96,East,91,6.0,13.0,57,0.00,,,0.00,WUHU216DAVISVP2,2013-05-06 21:09:00,
2013-05-06 17:14:00,69.4,54.1,29.96,ESE,109,4.0,12.0,58,0.00,,,0.00,WUHU216DAVISVP2,2013-05-06 21:14:00,
2013-05-06 17:19:00,69.4,54.6,29.96,East,94,7.0,11.0,59,0.00,,,0.00,WUHU216DAVISVP2,2013-05-06 21:19:00,
2013-05-06 17:31:00,69.6,54.8,29.96,SE,129,4.0,9.0,59,0.00,,,0.00,WUHU216DAVISVP2,2013-05-06 21:31:00,
2013-05-06 17:36:00,69.6,54.3,29.96,East,79,5.0,11.0,58,0.00,,,0.00,WUHU216DAVISVP2,2013-05-06 21:36:00,
2013-05-06 17:53:00,69.4,54.6,29.96,ESE,116,8.0,10.0,59,0.00,,,0.00,WUHU216DAVISVP2,2013-05-06 21:53:00,
2013-05-06 17:58:00,69.3,54.5,29.96,ESE,120,9.0,12.0,59,0.00,,,0.00,WUHU216DAVISVP2,2013-05-06 21:58:00,
2013-05-06 18:15:00,69.1,53.9,29.96,East,87,7.0,11.0,58,0.00,,,0.00,WUHU216DAVISVP2,2013-05-06 22:15:00,
2013-05-06 18:20:00,69.2,53.5,29.95,East,82,5.0,9.0,57,0.00,,,0.00,WUHU216DAVISVP2,2013-05-06 22:20:00,
2013-05-06 18:25:00,69.2,54.0,29.95,ESE,109,4.0,9.0,58,0.00,,,0.00,WUHU216DAVISVP2,2013-05-06 22:25:00,
2013-05-06 18:37:00,69.2,54.4,29.96,ENE,64,4.0,7.0,59,0.00,,,0.00,WUHU216DAVISVP2,2013-05-06 22:37:00,
2013-05-06 18:42:00,69.2,54.9,29.95,ENE,74,3.0,7.0,60,0.00,,,0.00,WUHU216DAVISVP2,2013-05-06 22:42:00,
2013-05-06 18:47:00,69.2,54.9,29.96,East,86,2.0,6.0,60,0.00,,,0.00,WUHU216DAVISVP2,2013-05-06 22:47:00,
2013-05-06 18:59:00,69.3,55.5,29.96,ENE,72,4.0,6.0,61,0.00,,,0.00,WUHU216DAVISVP2,2013-05-06 22:59:00,
2013-05-06 19:04:00,69.3,54.5,29.96,East,91,2.0,6.0,59,0.00,,,0.00,WUHU216DAVISVP2,2013-05-06 23:04:00,
2013-05-06 19:09:00,69.3,54.5,29.96,East,85,2.0,5.0,59,0.00,,,0.00,WUHU216DAVISVP2,2013-05-06 23:09:00,
2013-05-06 19:21:00,69.4,54.6,29.96,ESE,117,1.0,4.0,59,0.00,,,0.00,WUHU216DAVISVP2,2013-05-06 23:21:00,
2013-05-06 19:26:00,69.4,54.6,29.96,East,94,5.0,6.0,59,0.00,,,0.00,WUHU216DAVISVP2,2013-05-06 23:26:00,
2013-05-06 19:31:00,69.3,54.5,29.96,South,187,4.0,6.0,59,0.00,,,0.00,WUHU216DAVISVP2,2013-05-06 23:31:00,
2013-05-06 19:43:00,68.6,53.9,29.96,SSE,153,3.0,6.0,59,0.00,,,0.00,WUHU216DAVISVP2,2013-05-06 23:43:00,
2013-05-06 19:48:00,68.3,54.0,29.96,SSE,155,2.0,6.0,60,0.00,,,0.00,WUHU216DAVISVP2,2013-05-06 23:48:00,
2013-05-06 19:53:00,68.1,53.9,29.97,SSE,162,2.0,6.0,60,0.00,,,0.00,WUHU216DAVISVP2,2013-05-06 23:53:00,
2013-05-06 20:05:00,67.5,54.2,29.97,SSE,158,1.0,4.0,62,0.00,,,0.00,WUHU216DAVISVP2,2013-05-07 00:05:00,
2013-05-06 20:10:00,67.3,54.0,29.97,SSE,162,1.0,3.0,62,0.00,,,0.00,WUHU216DAVISVP2,2013-05-07 00:10:00,
2013-05-06 20:15:00,67.1,54.3,29.97,SSE,161,0.0,3.0,63,0.00,,,0.00,WUHU216DAVISVP2,2013-05-07 00:15:00,
2013-05-06 20:26:00,66.6,54.2,29.97,SSE,161,0.0,2.0,64,0.00,,,0.00,WUHU216DAVISVP2,2013-05-07 00:26:00,
2013-05-06 20:31:00,66.3,53.9,29.97,SSE,160,0.0,1.0,64,0.00,,,0.00,WUHU216DAVISVP2,2013-05-07 00:31:00,
2013-05-06 20:36:00,66.1,53.7,29.97,SSE,161,0.0,0.0,64,0.00,,,0.00,WUHU216DAVISVP2,2013-05-07 00:36:00,
2013-05-06 20:48:00,66.0,53.2,29.97,SW,219,0.0,0.0,63,0.00,,,0.00,WUHU216DAVISVP2,2013-05-07 00:48:00,
2013-05-06 20:53:00,65.9,53.5,29.98,SW,219,0.0,0.0,64,0.00,,,0.00,WUHU216DAVISVP2,2013-05-07 00:53:00,
2013-05-06 20:58:00,65.8,53.5,29.98,SW,228,0.0,0.0,64,0.00,,,0.00,WUHU216DAVISVP2,2013-05-07 00:58:00,
2013-05-06 21:10:00,65.5,54.0,29.98,SW,228,0.0,1.0,66,0.00,,,0.00,WUHU216DAVISVP2,2013-05-07 01:10:00,
2013-05-06 21:15:00,65.4,53.9,29.98,SW,228,0.0,1.0,66,0.00,,,0.00,WUHU216DAVISVP2,2013-05-07 01:15:00,
2013-05-06 21:20:00,65.4,53.9,29.98,WNW,283,0.0,1.0,66,0.00,,,0.00,WUHU216DAVISVP2,2013-05-07 01:20:00,
2013-05-06 21:32:00,65.2,53.7,29.98,WNW,293,0.0,2.0,66,0.00,,,0.00,WUHU216DAVISVP2,2013-05-07 01:32:00,
2013-05-06 21:37:00,65.2,53.7,29.98,WNW,293,0.0,2.0,66,0.00,,,0.00,WUHU216DAVISVP2,2013-05-07 01:37:00,
2013-05-06 21:42:00,65.1,54.0,29.98,WNW,293,0.0,1.0,67,0.00,,,0.00,WUHU216DAVISVP2,2013-05-07 01:42:00,
2013-05-06 21:54:00,65.0,53.5,29.98,WNW,292,0.0,1.0,66,0.00,,,0.00,WUHU216DAVISVP2,2013-05-07 01:54:00,
2013-05-06 21:59:00,65.0,53.9,29.99,WNW,293,0.0,1.0,67,0.00,,,0.00,WUHU216DAVISVP2,2013-05-07 01:59:00,
2013-05-06 22:04:00,64.3,54.5,29.99,WNW,293,0.0,1.0,70,0.00,,,0.00,WUHU216DAVISVP2,2013-05-07 02:04:00,
2013-05-06 22:16:00,63.3,54.3,29.99,WNW,293,0.0,1.0,72,0.00,,,0.00,WUHU216DAVISVP2,2013-05-07 02:16:00,
2013-05-06 22:21:00,63.2,54.2,29.99,WNW,293,0.0,1.0,72,0.00,,,0.00,WUHU216DAVISVP2,2013-05-07 02:21:00,
2013-05-06 22:26:00,63.0,54.3,29.99,WNW,292,0.0,0.0,73,0.00,,,0.00,WUHU216DAVISVP2,2013-05-07 02:26:00,
2013-05-06 22:38:00,62.6,54.7,29.99,NNW,346,0.0,4.0,75,0.00,,,0.00,WUHU216DAVISVP2,2013-05-07 02:38:00,
2013-05-06 22:43:00,62.4,54.1,30.00,NNW,345,0.0,4.0,74,0.00,,,0.00,WUHU216DAVISVP2,2013-05-07 02:43:00,
2013-05-06 22:48:00,62.4,54.8,30.00,NNW,346,0.0,4.0,76,0.00,,,0.00,WUHU216DAVISVP2,2013-05-07 02:48:00,
2013-05-06 23:00:00,62.0,54.4,30.00,WNW,293,1.0,3.0,76,0.00,,,0.00,WUHU216DAVISVP2,2013-05-07 03:00:00,
2013-05-06 23:05:00,62.5,54.6,30.00,NW,325,3.0,4.0,75,0.00,,,0.00,WUHU216DAVISVP2,2013-05-07 03:05:00,
2013-05-06 23:22:00,63.2,54.9,30.00,NE,36,0.0,4.0,74,0.00,,,0.00,WUHU216DAVISVP2,2013-05-07 03:22:00,
2013-05-06 23:27:00,62.7,54.8,30.00,East,81,0.0,2.0,75,0.00,,,0.00,WUHU216DAVISVP2,2013-05-07 03:27:00,
2013-05-06 23:32:00,62.2,54.6,30.00,NE,46,0.0,2.0,76,0.00,,,0.00,WUHU216DAVISVP2,2013-05-07 03:32:00,
2013-05-06 23:44:00,61.5,54.6,29.99,North,351,0.0,1.0,78,0.00,,,0.00,WUHU216DAVISVP2,2013-05-07 03:44:00,
2013-05-06 23:49:00,61.2,54.6,30.00,North,351,0.0,1.0,79,0.00,,,0.00,WUHU216DAVISVP2,2013-05-07 03:49:00,
2013-05-06 23:54:00,61.1,54.5,30.00,NE,47,0.0,2.0,79,0.00,,,0.00,WUHU216DAVISVP2,2013-05-07 03:54:00,